createdAt,value
2023-10-05T00:01:23.352Z,4.83
2023-10-05T00:03:52.813Z,5.03
2023-10-05T00:06:28.467Z,5.30
2023-10-05T00:08:57.490Z,4.73
2023-10-05T00:11:32.737Z,5.90
2023-10-05T00:14:05.006Z,4.83
2023-10-05T00:16:38.096Z,5.17
2023-10-05T00:19:14.274Z,5.10
2023-10-05T00:21:58.129Z,4.90
2023-10-05T00:24:36.073Z,5.03
2023-10-05T00:27:14.662Z,4.70
2023-10-05T00:29:42.804Z,5.30
2023-10-05T00:32:16.530Z,5.37
2023-10-05T00:34:45.841Z,5.90
2023-10-05T00:37:13.292Z,5.40
2023-10-05T00:39:41.219Z,5.57
2023-10-05T00:42:11.502Z,5.13
2023-10-05T00:44:41.803Z,5.40
2023-10-05T00:47:09.368Z,5.10
2023-10-05T00:49:43.787Z,5.37
2023-10-05T00:52:17.588Z,6.00
2023-10-05T00:54:49.804Z,5.77
2023-10-05T00:57:26.281Z,5.77
2023-10-05T01:00:05.845Z,5.47
2023-10-05T01:02:34.357Z,4.93
2023-10-05T01:05:24.194Z,6.07
2023-10-05T01:07:57.320Z,5.70
2023-10-05T01:10:25.235Z,5.33
2023-10-05T01:12:52.761Z,5.50
2023-10-05T01:15:21.332Z,5.83
2023-10-05T01:17:49.402Z,5.87
2023-10-05T01:20:19.332Z,5.97
2023-10-05T01:22:47.769Z,5.03
2023-10-05T01:25:16.250Z,5.00
2023-10-05T01:27:45.763Z,5.40
2023-10-05T01:30:16.724Z,5.13
2023-10-05T01:32:47.832Z,4.63
2023-10-05T01:35:17.026Z,4.63
2023-10-05T01:37:46.111Z,4.83
2023-10-05T01:40:20.510Z,4.80
2023-10-05T01:42:49.569Z,5.20
2023-10-05T01:45:21.006Z,5.00
2023-10-05T01:47:48.193Z,4.87
2023-10-05T01:50:25.410Z,5.67
2023-10-05T01:53:13.401Z,4.80
2023-10-05T01:55:40.852Z,5.43
2023-10-05T01:58:09.651Z,5.30
2023-10-05T02:00:59.801Z,5.30
2023-10-05T02:03:27.670Z,5.03
2023-10-05T02:06:00.145Z,4.77
2023-10-05T02:08:34.937Z,4.97
2023-10-05T02:11:05.380Z,5.30
2023-10-05T02:13:33.124Z,4.90
2023-10-05T02:16:01.482Z,5.00
2023-10-05T02:18:31.888Z,4.73
2023-10-05T02:21:09.698Z,4.90
2023-10-05T02:23:41.790Z,4.77
2023-10-05T02:26:25.190Z,4.87
2023-10-05T02:28:52.966Z,4.70
2023-10-05T02:31:21.699Z,5.00
2023-10-05T02:33:49.284Z,4.80
2023-10-05T02:36:22.462Z,4.90
2023-10-05T02:38:55.821Z,5.70
2023-10-05T02:41:39.251Z,5.67
2023-10-05T02:44:18.441Z,5.97
2023-10-05T02:46:49.749Z,6.07
2023-10-05T02:49:18.177Z,6.67
2023-10-05T02:51:45.996Z,6.33
2023-10-05T02:54:14.076Z,6.03
2023-10-05T02:56:44.355Z,6.40
2023-10-05T02:59:11.685Z,5.30
2023-10-05T03:01:39.460Z,5.80
2023-10-05T03:04:17.092Z,5.40
2023-10-05T03:06:46.807Z,5.63
2023-10-05T03:09:13.841Z,5.43
2023-10-05T03:11:42.698Z,5.07
2023-10-05T03:14:11.436Z,5.03
2023-10-05T03:16:49.549Z,4.77
2023-10-05T03:19:22.253Z,4.80
2023-10-05T03:21:52.467Z,4.43
2023-10-05T03:24:20.711Z,4.87
2023-10-05T03:26:48.498Z,4.77
2023-10-05T03:29:15.728Z,4.57
2023-10-05T03:31:56.926Z,5.07
2023-10-05T03:34:28.109Z,5.43
2023-10-05T03:36:56.764Z,5.50
2023-10-05T03:39:26.670Z,5.67
2023-10-05T03:41:53.732Z,5.93
2023-10-05T03:44:21.086Z,6.53
2023-10-05T03:46:48.562Z,6.00
2023-10-05T03:49:16.208Z,6.70
2023-10-05T03:51:51.119Z,8.23
2023-10-05T03:54:27.643Z,8.30
2023-10-05T03:57:15.399Z,11.30
2023-10-05T03:59:42.471Z,9.53
2023-10-05T04:02:09.588Z,9.93
2023-10-05T04:04:38.214Z,8.57
2023-10-05T04:07:05.557Z,7.60
2023-10-05T04:09:34.590Z,7.63
2023-10-05T04:12:02.450Z,7.47
2023-10-05T04:14:30.072Z,7.43
2023-10-05T04:17:00.793Z,6.87
2023-10-05T04:19:27.866Z,6.73
2023-10-05T04:21:57.771Z,6.80
2023-10-05T04:24:25.224Z,6.80
2023-10-05T04:26:52.838Z,6.13
2023-10-05T04:29:23.242Z,5.47
2023-10-05T04:31:50.560Z,5.93
2023-10-05T04:34:21.141Z,5.30
2023-10-05T04:36:52.404Z,5.73
2023-10-05T04:39:33.515Z,6.53
2023-10-05T04:42:07.764Z,5.87
2023-10-05T04:44:35.563Z,5.60
2023-10-05T04:47:04.439Z,5.83
2023-10-05T04:49:32.067Z,5.67
2023-10-05T04:52:01.478Z,5.73
2023-10-05T04:54:29.419Z,5.43
2023-10-05T04:57:04.728Z,5.47
2023-10-05T04:59:37.801Z,6.00
2023-10-05T05:02:22.602Z,5.63
2023-10-05T05:04:53.034Z,5.90
2023-10-05T05:07:23.405Z,5.97
2023-10-05T05:09:52.131Z,5.63
2023-10-05T05:12:19.488Z,5.50
2023-10-05T05:14:48.047Z,5.93
2023-10-05T05:17:17.301Z,5.43
2023-10-05T05:19:46.035Z,5.40
2023-10-05T05:22:13.456Z,5.47
2023-10-05T05:24:42.308Z,5.50
2023-10-05T05:27:13.208Z,5.93
2023-10-05T05:29:40.324Z,6.00
2023-10-05T05:32:13.155Z,9.70
2023-10-05T05:34:44.522Z,8.13
2023-10-05T05:37:15.462Z,7.23
2023-10-05T05:39:42.482Z,6.37
2023-10-05T05:42:15.624Z,6.43
2023-10-05T05:44:43.317Z,6.27
2023-10-05T05:47:11.781Z,6.57
2023-10-05T05:49:41.922Z,5.90
2023-10-05T05:52:13.572Z,5.10
2023-10-05T05:54:48.212Z,5.27
2023-10-05T05:57:22.097Z,6.20
2023-10-05T05:59:49.291Z,5.20
2023-10-05T06:02:16.392Z,6.13
2023-10-05T06:04:43.644Z,5.53
2023-10-05T06:07:14.609Z,5.37
2023-10-05T06:09:44.511Z,5.93
2023-10-05T06:12:17.899Z,5.50
2023-10-05T06:14:44.972Z,5.47
2023-10-05T06:17:12.512Z,5.47
2023-10-05T06:19:39.915Z,5.37
2023-10-05T06:22:08.329Z,5.07
2023-10-05T06:24:39.048Z,5.27
2023-10-05T06:27:07.463Z,5.60
2023-10-05T06:29:35.381Z,5.53
2023-10-05T06:32:04.088Z,5.40
2023-10-05T06:34:31.574Z,6.23
2023-10-05T06:36:58.787Z,6.23
2023-10-05T06:39:28.881Z,5.90
2023-10-05T06:41:55.970Z,6.37
2023-10-05T06:44:26.089Z,6.37
2023-10-05T06:46:54.825Z,5.47
2023-10-05T06:49:24.141Z,5.77
2023-10-05T06:51:51.835Z,6.80
2023-10-05T06:54:19.158Z,6.40
2023-10-05T06:56:50.977Z,6.63
2023-10-05T06:59:22.592Z,6.53
2023-10-05T07:01:49.930Z,6.93
2023-10-05T07:04:19.779Z,6.63
2023-10-05T07:06:47.021Z,6.73
2023-10-05T07:09:14.053Z,6.90
2023-10-05T07:11:41.134Z,6.53
2023-10-05T07:14:08.540Z,6.80
2023-10-05T07:16:35.691Z,6.90
2023-10-05T07:19:02.861Z,6.30
2023-10-05T07:21:30.704Z,6.60
2023-10-05T07:23:57.653Z,7.20
2023-10-05T07:26:24.621Z,6.47
2023-10-05T07:28:51.683Z,6.73
2023-10-05T07:31:18.661Z,6.73
2023-10-05T07:33:45.818Z,6.97
2023-10-05T07:36:14.541Z,7.13
2023-10-05T07:38:41.811Z,7.27
2023-10-05T07:41:08.952Z,6.67
2023-10-05T07:43:44.273Z,5.53
2023-10-05T07:46:17.710Z,5.93
2023-10-05T07:48:46.874Z,5.10
2023-10-05T07:51:17.840Z,5.63
2023-10-05T07:53:45.231Z,6.07
2023-10-05T07:56:12.404Z,5.37
2023-10-05T07:58:40.154Z,5.77
2023-10-05T08:01:07.400Z,5.93
2023-10-05T08:03:36.906Z,5.33
2023-10-05T08:06:04.427Z,5.80
2023-10-05T08:08:31.748Z,5.50
2023-10-05T08:10:58.744Z,5.43
2023-10-05T08:13:26.409Z,5.70
2023-10-05T08:15:53.521Z,5.30
2023-10-05T08:18:20.581Z,5.57
2023-10-05T08:20:47.569Z,5.37
2023-10-05T08:23:14.546Z,6.00
2023-10-05T08:25:41.597Z,5.80
2023-10-05T08:28:10.981Z,5.57
2023-10-05T08:30:47.044Z,5.07
2023-10-05T08:33:17.010Z,5.63
2023-10-05T08:35:44.097Z,5.87
2023-10-05T08:38:17.436Z,5.63
2023-10-05T08:40:46.732Z,5.40
2023-10-05T08:43:18.182Z,5.57
2023-10-05T08:45:53.112Z,5.43
2023-10-05T08:48:37.290Z,6.13
2023-10-05T08:51:12.019Z,5.93
2023-10-05T08:53:44.788Z,5.70
2023-10-05T08:56:16.760Z,5.60
2023-10-05T08:58:48.762Z,5.80
2023-10-05T09:01:34.718Z,6.20
2023-10-05T09:04:26.058Z,5.80
2023-10-05T09:06:58.059Z,5.80
2023-10-05T09:09:40.737Z,6.40
2023-10-05T09:12:34.476Z,5.87
2023-10-05T09:15:15.858Z,5.63
2023-10-05T09:18:01.631Z,5.77
2023-10-05T09:20:34.319Z,5.67
2023-10-05T09:23:11.347Z,5.40
2023-10-05T09:25:41.528Z,5.40
2023-10-05T09:28:15.994Z,5.03
2023-10-05T09:30:57.915Z,5.77
2023-10-05T09:33:28.008Z,5.57
2023-10-05T09:36:08.041Z,5.20
2023-10-05T09:38:41.830Z,5.37
2023-10-05T09:41:09.575Z,4.67
2023-10-05T09:43:39.886Z,5.17
2023-10-05T09:46:11.711Z,4.77
2023-10-05T09:48:42.930Z,4.77
2023-10-05T09:51:15.576Z,4.20
2023-10-05T09:53:44.463Z,5.20
2023-10-05T09:56:19.108Z,4.30
2023-10-05T09:58:48.348Z,4.03
2023-10-05T10:01:21.739Z,4.27
2023-10-05T10:03:54.839Z,4.17
2023-10-05T10:06:29.657Z,4.40
2023-10-05T10:09:09.716Z,4.60
2023-10-05T10:11:37.272Z,3.93
2023-10-05T10:14:11.357Z,4.00
2023-10-05T10:16:43.339Z,3.83
2023-10-05T10:19:28.446Z,4.50
2023-10-05T10:22:01.541Z,4.20
2023-10-05T10:24:31.374Z,3.53
2023-10-05T10:27:12.775Z,3.57
2023-10-05T10:29:48.241Z,4.07
2023-10-05T10:32:23.866Z,4.03
2023-10-05T10:34:53.677Z,4.33
2023-10-05T10:38:00.073Z,4.10
2023-10-05T10:40:28.426Z,3.70
2023-10-05T10:43:02.343Z,3.80
2023-10-05T10:45:34.137Z,4.00
2023-10-05T10:48:01.706Z,3.73
2023-10-05T10:50:32.441Z,4.03
2023-10-05T10:53:00.461Z,4.27
2023-10-05T10:55:37.515Z,4.17
2023-10-05T10:58:09.878Z,4.27
2023-10-05T11:00:42.903Z,3.73
2023-10-05T11:03:12.302Z,4.10
2023-10-05T11:05:47.066Z,4.37
2023-10-05T11:08:16.446Z,3.83
2023-10-05T11:10:44.288Z,3.80
2023-10-05T11:13:20.788Z,4.03
2023-10-05T11:16:01.779Z,4.23
2023-10-05T11:18:35.691Z,4.47
2023-10-05T11:21:18.576Z,4.33
2023-10-05T11:23:57.338Z,4.30
2023-10-05T11:26:52.364Z,3.93
2023-10-05T11:29:29.575Z,3.73
2023-10-05T11:32:16.522Z,3.80
2023-10-05T11:35:16.603Z,3.40
2023-10-05T11:37:46.978Z,3.40
2023-10-05T11:40:25.115Z,3.87
2023-10-05T11:42:52.337Z,3.40
2023-10-05T11:45:19.914Z,3.50
2023-10-05T11:47:57.712Z,3.50
2023-10-05T11:50:34.492Z,3.63
2023-10-05T11:53:09.022Z,3.13
2023-10-05T11:55:37.092Z,6.13
2023-10-05T11:58:04.505Z,3.90
2023-10-05T12:00:32.875Z,3.13
2023-10-05T12:03:01.174Z,3.07
2023-10-05T12:05:31.429Z,3.13
2023-10-05T12:08:01.431Z,3.10
2023-10-05T12:10:29.065Z,2.93
2023-10-05T12:12:56.276Z,3.60
2023-10-05T12:15:24.243Z,3.63
2023-10-05T12:17:51.369Z,4.03
2023-10-05T12:20:19.649Z,3.67
2023-10-05T12:22:47.481Z,3.70
2023-10-05T12:25:17.360Z,3.83
2023-10-05T12:27:44.595Z,4.30
2023-10-05T12:30:12.539Z,4.03
2023-10-05T12:32:41.169Z,3.13
2023-10-05T12:35:14.826Z,3.40
2023-10-05T12:37:43.484Z,3.10
2023-10-05T12:40:20.532Z,3.20
2023-10-05T12:43:14.101Z,3.43
2023-10-05T12:45:43.815Z,3.60
2023-10-05T12:48:13.296Z,3.30
2023-10-05T12:50:43.664Z,3.67
2023-10-05T12:53:10.689Z,3.57
2023-10-05T12:55:39.274Z,3.50
2023-10-05T12:58:10.672Z,3.43
2023-10-05T13:00:45.952Z,3.20
2023-10-05T13:03:14.571Z,2.93
2023-10-05T13:05:47.819Z,3.30
2023-10-05T13:08:17.868Z,2.83
2023-10-05T13:10:46.486Z,3.33
2023-10-05T13:13:21.544Z,2.87
2023-10-05T13:15:49.232Z,3.20
2023-10-05T13:18:22.828Z,3.10
2023-10-05T13:20:51.536Z,2.63
2023-10-05T13:23:25.985Z,3.10
2023-10-05T13:25:54.702Z,3.00
2023-10-05T13:28:26.234Z,2.80
2023-10-05T13:30:55.334Z,2.47
2023-10-05T13:33:23.152Z,2.83
2023-10-05T13:35:54.252Z,2.57
2023-10-05T13:38:28.774Z,3.00
2023-10-05T13:41:03.827Z,2.87
2023-10-05T13:43:32.829Z,3.20
2023-10-05T13:46:15.808Z,2.60
2023-10-05T13:48:47.521Z,2.90
2023-10-05T13:51:19.991Z,2.87
2023-10-05T13:53:58.288Z,2.67
2023-10-05T13:56:32.316Z,2.80
2023-10-05T13:59:04.512Z,3.30
2023-10-05T14:01:44.607Z,3.00
2023-10-05T14:04:14.410Z,2.57
2023-10-05T14:06:43.276Z,2.50
2023-10-05T14:09:12.396Z,3.00
2023-10-05T14:11:41.754Z,2.63
2023-10-05T14:14:10.454Z,2.50
2023-10-05T14:16:51.931Z,2.60
2023-10-05T14:19:21.078Z,2.20
2023-10-05T14:21:49.064Z,2.37
2023-10-05T14:24:19.295Z,2.47
2023-10-05T14:26:50.160Z,2.70
2023-10-05T14:29:21.030Z,2.30
2023-10-05T14:31:53.613Z,2.40
2023-10-05T14:34:22.849Z,2.77
2023-10-05T14:36:54.240Z,2.60
2023-10-05T14:39:24.821Z,2.73
2023-10-05T14:41:57.516Z,2.53
2023-10-05T14:44:27.064Z,2.63
2023-10-05T14:46:56.769Z,2.80
2023-10-05T14:49:24.042Z,2.53
2023-10-05T14:51:51.626Z,2.60
2023-10-05T14:54:22.687Z,2.67
2023-10-05T14:56:50.097Z,2.53
2023-10-05T14:59:17.346Z,2.50
2023-10-05T15:01:45.073Z,2.13
2023-10-05T15:04:12.614Z,2.60
2023-10-05T15:06:39.797Z,2.60
2023-10-05T15:09:07.263Z,2.40
2023-10-05T15:11:34.494Z,2.70
2023-10-05T15:14:01.766Z,2.40
2023-10-05T15:16:29.114Z,2.40
2023-10-05T15:18:56.236Z,2.43
2023-10-05T15:21:24.216Z,2.30
2023-10-05T15:23:54.259Z,2.40
2023-10-05T15:26:21.382Z,2.50
2023-10-05T15:28:49.884Z,2.53
2023-10-05T15:31:18.600Z,2.57
2023-10-05T15:33:45.717Z,2.20
2023-10-05T15:36:12.731Z,2.60
2023-10-05T15:38:40.435Z,2.50
2023-10-05T15:41:07.430Z,2.47
2023-10-05T15:43:34.488Z,2.77
2023-10-05T15:46:01.972Z,2.27
2023-10-05T15:48:29.389Z,2.83
2023-10-05T15:50:57.546Z,2.10
2023-10-05T15:53:24.915Z,2.30
2023-10-05T15:55:53.452Z,2.33
2023-10-05T15:58:20.794Z,2.30
2023-10-05T16:00:47.958Z,2.03
2023-10-05T16:03:16.018Z,2.13
2023-10-05T16:05:44.192Z,2.70
2023-10-05T16:08:13.155Z,2.43
2023-10-05T16:10:40.836Z,2.50
2023-10-05T16:13:12.525Z,2.70
2023-10-05T16:15:41.513Z,2.50
2023-10-05T16:18:09.542Z,2.80
2023-10-05T16:20:42.393Z,2.90
2023-10-05T16:23:12.886Z,2.67
2023-10-05T16:25:41.539Z,3.10
2023-10-05T16:28:09.919Z,2.50
2023-10-05T16:30:38.045Z,2.70
2023-10-05T16:33:07.925Z,2.70
2023-10-05T16:35:35.644Z,2.80
2023-10-05T16:38:02.723Z,2.47
2023-10-05T16:40:30.611Z,2.67
2023-10-05T16:42:59.700Z,2.70
2023-10-05T16:45:27.487Z,3.10
2023-10-05T16:47:56.138Z,2.60
2023-10-05T16:50:25.159Z,2.80
2023-10-05T16:52:52.659Z,2.33
2023-10-05T16:55:21.840Z,2.40
2023-10-05T16:57:54.779Z,2.10
2023-10-05T17:00:28.592Z,3.00
2023-10-05T17:02:57.201Z,2.70
2023-10-05T17:05:29.589Z,2.77
2023-10-05T17:08:00.659Z,2.70
2023-10-05T17:10:28.717Z,2.90
2023-10-05T17:12:56.142Z,2.90
2023-10-05T17:15:25.005Z,3.10
2023-10-05T17:17:54.595Z,3.00
2023-10-05T17:20:23.610Z,3.00
2023-10-05T17:22:51.731Z,2.90
2023-10-05T17:25:19.389Z,3.30
2023-10-05T17:27:46.760Z,3.50
2023-10-05T17:30:15.276Z,3.00
2023-10-05T17:32:47.939Z,3.00
2023-10-05T17:35:23.863Z,2.83
2023-10-05T17:37:53.354Z,3.10
2023-10-05T17:40:21.151Z,2.80
2023-10-05T17:42:48.912Z,2.90
2023-10-05T17:45:16.053Z,2.70
2023-10-05T17:47:46.043Z,3.00
2023-10-05T17:50:14.715Z,3.50
2023-10-05T17:52:46.386Z,3.47
2023-10-05T17:55:14.000Z,3.57
2023-10-05T17:57:40.964Z,3.43
2023-10-05T18:00:17.239Z,3.80
2023-10-05T18:02:45.217Z,4.47
2023-10-05T18:05:16.277Z,4.30
2023-10-05T18:07:43.620Z,3.80
2023-10-05T18:10:10.857Z,4.20
2023-10-05T18:12:38.913Z,4.30
2023-10-05T18:15:07.257Z,3.70
2023-10-05T18:17:35.727Z,3.87
2023-10-05T18:20:03.063Z,4.13
2023-10-05T18:22:31.237Z,3.83
2023-10-05T18:25:01.250Z,3.80
2023-10-05T18:27:28.381Z,3.80
2023-10-05T18:29:55.518Z,3.70
2023-10-05T18:32:22.647Z,4.33
2023-10-05T18:34:50.231Z,4.10
2023-10-05T18:37:17.289Z,3.57
2023-10-05T18:39:44.392Z,4.03
2023-10-05T18:42:11.529Z,4.20
2023-10-05T18:44:41.641Z,4.20
2023-10-05T18:47:11.115Z,3.77
2023-10-05T18:49:39.025Z,4.13
2023-10-05T18:52:09.230Z,4.70
2023-10-05T18:54:36.335Z,4.30
2023-10-05T18:57:03.472Z,4.93
2023-10-05T18:59:30.685Z,4.43
2023-10-05T19:02:01.047Z,4.80
2023-10-05T19:04:28.890Z,4.73
2023-10-05T19:06:57.122Z,5.90
2023-10-05T19:09:25.823Z,5.57
2023-10-05T19:11:57.116Z,5.63
2023-10-05T19:14:24.255Z,5.97
2023-10-05T19:16:54.882Z,5.90
2023-10-05T19:19:22.000Z,5.40
2023-10-05T19:21:49.046Z,4.93
2023-10-05T19:24:16.202Z,5.50
2023-10-05T19:26:45.926Z,5.03
2023-10-05T19:29:15.290Z,5.23
2023-10-05T19:31:44.245Z,5.43
2023-10-05T19:34:11.555Z,5.10
2023-10-05T19:36:38.569Z,5.17
2023-10-05T19:39:11.642Z,4.80
2023-10-05T19:41:38.974Z,5.33
2023-10-05T19:44:06.769Z,5.13
2023-10-05T19:46:34.083Z,5.93
2023-10-05T19:49:03.497Z,6.17
2023-10-05T19:51:30.593Z,5.47
2023-10-05T19:53:58.247Z,5.07
2023-10-05T19:56:36.255Z,4.53
2023-10-05T19:59:05.085Z,5.00
2023-10-05T20:01:32.189Z,4.50
2023-10-05T20:04:01.790Z,4.60
2023-10-05T20:06:30.737Z,4.37
2023-10-05T20:08:58.610Z,4.00
2023-10-05T20:11:25.690Z,4.43
2023-10-05T20:13:52.968Z,4.10
2023-10-05T20:16:36.752Z,3.47
2023-10-05T20:19:08.093Z,4.27
2023-10-05T20:21:35.296Z,3.80
2023-10-05T20:24:02.811Z,4.03
2023-10-05T20:26:30.208Z,4.47
2023-10-05T20:28:57.617Z,4.03
2023-10-05T20:31:25.197Z,3.90
2023-10-05T20:33:52.361Z,3.43
2023-10-05T20:36:19.480Z,3.80
2023-10-05T20:38:46.636Z,4.10
2023-10-05T20:41:13.747Z,3.77
2023-10-05T20:43:42.006Z,4.20
2023-10-05T20:46:13.869Z,3.90
2023-10-05T20:48:40.986Z,3.37
2023-10-05T20:51:08.108Z,3.50
2023-10-05T20:53:35.408Z,3.70
2023-10-05T20:56:10.729Z,3.50
2023-10-05T20:58:37.826Z,3.63
2023-10-05T21:01:06.016Z,3.70
2023-10-05T21:03:37.342Z,3.47
2023-10-05T21:06:07.378Z,3.60
2023-10-05T21:08:35.948Z,3.40
2023-10-05T21:11:04.177Z,3.80
2023-10-05T21:13:32.487Z,4.53
2023-10-05T21:15:59.592Z,3.60
2023-10-05T21:18:26.696Z,3.53
2023-10-05T21:20:53.737Z,3.10
2023-10-05T21:23:20.830Z,3.30
2023-10-05T21:25:52.303Z,3.20
2023-10-05T21:28:20.455Z,3.20
2023-10-05T21:30:48.099Z,3.47
2023-10-05T21:33:17.948Z,3.13
2023-10-05T21:35:46.151Z,2.90
2023-10-05T21:38:14.217Z,3.03
2023-10-05T21:40:41.393Z,3.20
2023-10-05T21:43:08.858Z,3.53
2023-10-05T21:45:36.103Z,3.13
2023-10-05T21:48:03.867Z,3.47
2023-10-05T21:50:30.982Z,2.57
2023-10-05T21:52:58.303Z,3.10
2023-10-05T21:55:25.744Z,3.27
2023-10-05T21:57:52.886Z,2.77
2023-10-05T22:00:40.232Z,3.00
2023-10-05T22:03:10.872Z,3.00
2023-10-05T22:05:39.055Z,2.83
2023-10-05T22:08:10.014Z,2.90
2023-10-05T22:10:38.573Z,3.23
2023-10-05T22:13:08.293Z,3.00
2023-10-05T22:15:36.338Z,3.30
2023-10-05T22:18:07.677Z,3.10
2023-10-05T22:20:35.237Z,3.40
2023-10-05T22:23:06.012Z,3.43
2023-10-05T22:25:39.714Z,3.00
2023-10-05T22:28:08.730Z,3.60
2023-10-05T22:30:36.806Z,3.17
2023-10-05T22:33:04.343Z,3.03
2023-10-05T22:35:31.568Z,2.87
2023-10-05T22:37:58.998Z,2.77
2023-10-05T22:40:26.258Z,3.00
2023-10-05T22:42:53.440Z,2.70
2023-10-05T22:45:21.459Z,2.83
2023-10-05T22:47:48.632Z,3.03
2023-10-05T22:50:18.733Z,3.00
2023-10-05T22:52:46.805Z,2.90
2023-10-05T22:55:14.167Z,2.87
2023-10-05T22:57:44.135Z,2.90
2023-10-05T23:00:13.719Z,3.03
2023-10-05T23:02:40.951Z,2.90
2023-10-05T23:05:08.683Z,3.03
2023-10-05T23:07:35.925Z,3.30
2023-10-05T23:10:06.448Z,3.20
2023-10-05T23:12:37.116Z,2.80
2023-10-05T23:15:08.037Z,3.10
2023-10-05T23:17:38.200Z,3.30
2023-10-05T23:20:09.092Z,2.93
2023-10-05T23:22:42.369Z,3.20
2023-10-05T23:25:18.818Z,3.37
2023-10-05T23:27:47.820Z,3.30
2023-10-05T23:30:19.572Z,3.13
2023-10-05T23:32:50.963Z,3.13
2023-10-05T23:35:20.924Z,3.30
2023-10-05T23:37:52.853Z,3.40
2023-10-05T23:40:26.146Z,3.40
2023-10-05T23:42:57.317Z,2.90
2023-10-05T23:45:25.121Z,3.10
2023-10-05T23:47:55.142Z,2.87
2023-10-05T23:50:27.434Z,3.10
2023-10-05T23:52:59.222Z,3.00
2023-10-05T23:55:27.418Z,3.47
2023-10-05T23:57:55.949Z,3.27
